KIKK/IKK METAR and TAF weather

Enter ICAO airport designator
Station Type Date Time Source
KIKK METAR 2020/02/21 03:15 UTC NOAA

KIKK 210315Z AUTO 30005KT 10SM CLR M08/M14 A3070 RMK AO2 T10801139 PWINO


Station Type Date Time Source
KIKK Decoded METAR 2020/02/21 03:15 UTC NOAA

Kankakee, Greater Kankakee Airport, IL, United States (KIKK) 41-04-17N 087-50-47W
Feb 20, 2020 - 10:15 PM EST / 2020.02.21 0315 UTC
Wind: from the WNW (300 degrees) at 6 MPH (5 KT):0
Visibility: 10 mile(s):0
Sky conditions: clear
Temperature: 17.6 F (-8.0 C)
Windchill: 8 F (-13 C):1
Dew Point: 7.0 F (-13.9 C)
Relative Humidity: 62%
Pressure (altimeter): 30.7 in. Hg (1039 hPa)
ob: KIKK 210315Z AUTO 30005KT 10SM CLR M08/M14 A3070 RMK AO2 T10801139 PWINO
cycle: 3

Station Type Date Time Source
KIKK TAF UTC NOAA

Error!

Example: see airport list